ETEB 152356Z AUTO 14004KT 9999 SCT037 SCT046 BKN060 06/06 A2987 RMK AO2 SLP134 60002 T00580058 10060 20057 58002 $ EDMA 152350Z AUTO 13004KT 9999 // FEW092/// OVC120/// 07/05 Q1012 ETIK 152356Z AUTO 00000KT 9999 -RA SCT043 BKN050 OVC060 07/07 A2987 RMK AO2 RAB53 SLP119 P0000 60000 T00720072 10077 20065 58002 FZRANO $ EDDT 152350Z 22008KT CAVOK 05/02 Q1008 LSZB 152350Z AUTO VRB02KT CAVOK 03/02 Q1012 LIPB 152150Z VRB02KT 9999 BKN050 02/M01 Q1020 RMK MON INVIS EDVE 151820Z 22010KT CAVOK 07/00 Q1004 EDDW 152350Z 21008KT CAVOK 05/02 Q1006 LFMD 160000Z AUTO 02004KT 340V050 9999 SCT029 BKN034 BKN046 10/09 Q1017 EDLW 152350Z AUTO 18011KT 9999 // FEW190/// 05/02 Q1007 EDDC 152350Z 12005KT CAVOK 05/02 Q1011 EDDL 152350Z 15011KT CAVOK 05/02 Q1007 NOSIG EDDE 152350Z 21008KT CAVOK 04/01 Q1009 LIRQ 152350Z VRB01KT 9999 BKN040 11/10 Q1019 EDDF 152350Z 18005KT 150V210 9999 -RA FEW026 BKN048 08/07 Q1010 NOSIG EDNY 152350Z AUTO 08003KT 9999 // FEW240/// 04/03 Q1011 ETHF 152320Z 13001KT 9999 BKN180 BKN210 03/01 Q1009 BLU LIMJ 152350Z 20005KT 150V280 9999 SCT020 SCT050 15/12 Q1018 ETIC 152356Z AUTO 00000KT 9999 -RA OVC048 06/06 A2987 RMK AO2 DZB48E49RAB49 SLP122 P0000 60000 T00560056 10063 20053 51004 $ LOWG 152350Z AUTO VRB01KT 4800 0400S R17/P1500D R35/0550N FZBCFG NSC M03/M03 Q1016 EDDH 152350Z 23010KT 9999 FEW024 06/02 Q1005 NOSIG EDDV 152350Z 19006KT 150V220 CAVOK 06/01 Q1007 ETIH 152356Z AUTO 00000KT 9999 OVC006 05/04 A2991 RMK AO2 OVC V BKN SLP138 60006 T00510044 10067 20046 53000 $ ETSI 152320Z AUTO VRB02KT 9999 // ////// 07/06 Q1013 /// LOWI 152350Z AUTO 23005KT 170V260 9999 NSC M01/M02 Q1015 EDVK 152020Z 22007KT CAVOK 05/M00 Q1007 LOWK 152350Z AUTO VRB01KT 0800 R10/1200D R28/0900U FZFG VV001 M04/M04 Q1019 EDDK 152350Z 12006KT 080V140 9999 FEW030 06/03 Q1008 NOSIG EDDP 152350Z 19007KT CAVOK 04/01 Q1010 NOSIG LOWL 152350Z AUTO 05004KT 9999 FEW050 03/02 Q1015 LSZA 152350Z AUTO VRB01KT 4100 BR SCT027 BKN030 06/06 Q1019 EDHL 151850Z 24016KT 9999 SCT025 07/03 Q1000 LIML 152350Z VRB02KT 3000 BR OVC050 06/05 Q1019 NOSIG LFML 160000Z AUTO 12010KT 9999 BKN022 BKN029 OVC034 14/10 Q1014 NOSIG LFMT 160000Z AUTO 13014KT 9999 SCT019 BKN027 BKN033 14/12 Q1013 NOSIG EDLN 152350Z AUTO 15003KT 9999 // NCD 02/01 Q1007 EDDM 152350Z 10003KT CAVOK 05/04 Q1013 NOSIG EDDG 152350Z 16006KT CAVOK 05/01 Q1006 NOSIG ETSN 152320Z 17004KT 9999 FEW023 BKN050 BKN090 06/06 Q1013 BLU ETHN 152320Z 17003KT 9999 -RA FEW003 SCT040 BKN060 06/06 Q1011 BLU LFMN 160000Z 33008KT 9999 SCT016 BKN063 11/09 Q1018 EDDN 152350Z 12005KT 9999 BKN045 07/06 Q1012 R28/290194 EDMO 152350Z AUTO 00000KT 7000 // BKN130/// 03/03 Q1012 EDLP 152350Z 18008KT CAVOK 05/00 Q1008 LIPR 152350Z AUTO 28002KT 9999 BKN060/// 07/05 Q1019 EDDR 152350Z 19005KT 9999 -RA FEW007 BKN025 07/07 Q1009 LOWS 152350Z AUTO 16010KT 9999 SCT250 03/M01 Q1014 LSGS 152350Z AUTO 06005KT 020V100 9999 NCD 02/01 Q1014 EDDS 152350Z VRB02KT CAVOK 06/06 Q1010 LFTH 160000Z AUTO 10010KT 9999 SCT014 BKN023 BKN032 15/13 Q1016 TEMPO BKN014 LIMF 152350Z VRB02KT 7000 SCT035 06/04 Q1019 LIPZ 152350Z 28003KT CAVOK 04/03 Q1019 NOSIG LIPX 152350Z VRB02KT 9999 BKN070 04/03 Q1019 LOWW 152350Z 31002KT 6000 FEW050 BKN060 01/00 Q1016 BECMG 2000 BCFG LSZH 152350Z VRB01KT CAVOK 04/02 Q1011 NOSIG

METAR Messwerte

Klicken Sie auf einen Ort, um die 36h-Historie abzurufen

Ort
m ü. NN
Zeit Temperatur Taupunkt Rel.
Luftfeuchte
Luftdruck:
Altimeter
NN
Station
Wind in Beaufort
(Knoten)
Sichtweite
(Meter)
Wolken
(Meter über Grund)
Wettererscheinung
Ansbach
467
Mo 16.12. 00:5666100 %1012
1014
957
SO 2 (4)>= 10000Stark bewölkt (1800)
Wolkig (1400)
Wolkig (1100)
 
Augsburg
463
Mo 16.12. 00:507587 %1012
1014
958
SO 2 (4)>= 10000Bedeckt (3700)
Leicht bewölkt (2800)
 
Bad Windsheim / Illesheim
325
Mo 16.12. 00:5677100 %1012
1013
974
Windstill>= 10000Bedeckt (1800)
Stark bewölkt (1500)
Wolkig (1300)
Regen (schwach)
Berlin-Tegel
37
Mo 16.12. 00:505281 %1008
1008
1004
SW 3 (8)>= 10000Nicht signifikant 
Bern/Belp
505
Mo 16.12. 00:503293 %1012
1015
953
Uml 1 (2)>= 10000Nicht signifikant 
Bozen
241
So 15.12. 22:502-180 %1020
1021
991
Uml 1 (2)>= 10000Stark bewölkt (1500) 
Braunschweig
88
So 15.12. 19:207061 %1004
1004
994
SW 3 (10)>= 10000Nicht signifikant 
Bremen
5
Mo 16.12. 00:505281 %1006
1006
1005
SSW 3 (8)>= 10000Nicht signifikant 
Cannes
9
Mo 16.12. 01:0010993 %1017
1017
1016
NNO 2 (4)
NNW - NO
>= 10000Stark bewölkt (1400)
Stark bewölkt (1000)
Wolkig (880)
 
Dortmund/Wickede
127
Mo 16.12. 00:505281 %1007
1008
992
S 4 (11)>= 10000Leicht bewölkt (5800) 
Dresden-Klotzsche
226
Mo 16.12. 00:505281 %1011
1012
984
OSO 2 (5)>= 10000Nicht signifikant 
Düsseldorf
44
Mo 16.12. 00:505281 %1007
1007
1002
SSO 4 (11)>= 10000Nicht signifikant 
Erfurt-Bindersleben
323
Mo 16.12. 00:504181 %1009
1011
971
SSW 3 (8)>= 10000Nicht signifikant 
Florenz
38
Mo 16.12. 00:50111094 %1019
1019
1014
Uml 1 (1)>= 10000Stark bewölkt (1200) 
Frankfurt
113
Mo 16.12. 00:508793 %1010
1010
997
S 2 (5)
SSO - SSW
>= 10000Stark bewölkt (1500)
Leicht bewölkt (790)
Regen (schwach)
Friedrichshafen
424
Mo 16.12. 00:504393 %1011
1013
961
O 2 (3)>= 10000Leicht bewölkt (7300) 
Fritzlar
181
Mo 16.12. 00:203187 %1009
1010
988
SO 1 (1)>= 10000Stark bewölkt (6400)
Stark bewölkt (5500)
 
Genua
3
Mo 16.12. 00:50151282 %1018
1018
1018
SSW 2 (5)
SSO - W
>= 10000Wolkig (1500)
Wolkig (610)
 
Grafenwöhr
415
Mo 16.12. 00:5666100 %1012
1014
963
Windstill>= 10000Bedeckt (1500)Regen (schwach)
Graz-Thalerhof
347
Mo 16.12. 00:50-3-3100 %1016
1019
975
Uml 1 (1)4800Nicht signifikant 
Hamburg-Fuhlsbüttel
16
Mo 16.12. 00:506275 %1005
1005
1003
SW 3 (10)>= 10000Leicht bewölkt (730) 
Hannover
54
Mo 16.12. 00:506170 %1007
1007
1001
S 2 (6)
SSO - SW
>= 10000Nicht signifikant 
Hohenfels
442
Mo 16.12. 00:565493 %1013
1015
961
Windstill>= 10000Bedeckt (180) 
Ingolstadt
370
Mo 16.12. 00:207693 %1013
1014
969
Uml 1 (2)>= 10000  
Innsbruck
581
Mo 16.12. 00:50-1-293 %1015
1019
947
SW 2 (5)
S - W
>= 10000Nicht signifikant 
Kassel/Calden
285
So 15.12. 21:205-070 %1007
1008
973
SW 3 (7)>= 10000Nicht signifikant 
Klagenfurt
441
Mo 16.12. 00:50-4-4100 %1019
1023
967
Uml 1 (1)800 Nebel
Köln/Bonn
99
Mo 16.12. 00:506381 %1008
1008
996
OSO 2 (6)
O - SO
>= 10000Leicht bewölkt (910) 
Leipzig-Schkeuditz
149
Mo 16.12. 00:504181 %1010
1011
992
S 3 (7)>= 10000Nicht signifikant 
Linz/Hörsching
313
Mo 16.12. 00:503293 %1015
1017
978
NO 2 (4)>= 10000Leicht bewölkt (1500) 
Lugano
276
Mo 16.12. 00:5066100 %1019
1020
986
Uml 1 (1)4100Stark bewölkt (910)
Wolkig (820)
Nebeldunst
Lübeck-Blankensee
16
So 15.12. 19:507376 %1000
1000
998
WSW 5 (16)>= 10000Wolkig (760) 
Mailand
103
Mo 16.12. 00:506593 %1019
1019
1007
Uml 1 (2)3000Bedeckt (1500)Nebeldunst
Marseille/Marignane
36
Mo 16.12. 01:00141077 %1014
1014
1010
OSO 3 (10)>= 10000Bedeckt (1000)
Stark bewölkt (880)
Stark bewölkt (670)
 
Montpellier
6
Mo 16.12. 01:00141288 %1013
1013
1012
SO 4 (14)>= 10000Stark bewölkt (1000)
Stark bewölkt (820)
Wolkig (580)
 
Mönchengladbach
38
Mo 16.12. 00:502193 %1007
1007
1002
SSO 2 (3)>= 10000  
München
447
Mo 16.12. 00:505493 %1013
1015
960
O 2 (3)>= 10000Nicht signifikant 
Münster/Osnabrück
52
Mo 16.12. 00:505175 %1006
1006
1000
SSO 2 (6)>= 10000Nicht signifikant 
Neuburg/Donau
387
Mo 16.12. 00:2066100 %1013
1015
967
S 2 (4)>= 10000Stark bewölkt (2700)
Stark bewölkt (1500)
Leicht bewölkt (700)
 
Niederstetten
473
Mo 16.12. 00:2066100 %1011
1013
956
S 2 (3)>= 10000Stark bewölkt (1800)
Wolkig (1200)
Leicht bewölkt (91)
Regen (schwach)
Nizza
10
Mo 16.12. 01:0011987 %1018
1018
1017
NNW 3 (8)>= 10000Stark bewölkt (1900)
Wolkig (490)
 
Nürnberg
312
Mo 16.12. 00:507693 %1012
1013
975
OSO 2 (5)>= 10000Stark bewölkt (1400) 
Oberpfaffenhofen
600
Mo 16.12. 00:5033100 %1012
1015
942
Windstill7000Stark bewölkt (4000) 
Paderborn/Lippstadt
213
Mo 16.12. 00:505070 %1008
1009
983
S 3 (8)>= 10000Nicht signifikant 
Rimini
13
Mo 16.12. 00:507587 %1019
1019
1017
W 1 (2)>= 10000Stark bewölkt (1800) 
Saarbrücken/Ensheim
320
Mo 16.12. 00:5077100 %1009
1010
971
S 2 (5)>= 10000Stark bewölkt (760)
Leicht bewölkt (210)
Regen (schwach)
Salzburg
450
Mo 16.12. 00:503-175 %1014
1016
961
SSO 3 (10)>= 10000Wolkig (7600) 
Sion
481
Mo 16.12. 00:502193 %1014
1017
958
ONO 2 (5)
NNO - O
>= 10000  
Stuttgart
419
Mo 16.12. 00:5066100 %1010
1012
961
Uml 1 (2)>= 10000Nicht signifikant 
Toulon
4
Mo 16.12. 01:00151388 %1016
1016
1016
O 3 (10)>= 10000Stark bewölkt (980)
Stark bewölkt (700)
Wolkig (430)
 
Turin
287
Mo 16.12. 00:506487 %1019
1020
985
Uml 1 (2)7000Wolkig (1100) 
Venedig
6
Mo 16.12. 00:504393 %1019
1019
1018
W 2 (3)>= 10000Nicht signifikant 
Verona/Villafranca
68
Mo 16.12. 00:504393 %1019
1019
1011
Uml 1 (2)>= 10000Stark bewölkt (2100) 
Wien/Schwechat
190
Mo 16.12. 00:501093 %1016
1017
993
NW 1 (2)6000Stark bewölkt (1800)
Leicht bewölkt (1500)
 Bald Übergang zu: Nebel-Bänke
Zürich-Kloten
432
Mo 16.12. 00:504287 %1011
1013
960
Uml 1 (1)>= 10000Nicht signifikant 

Altimeter: Einstellung am Altimeter (Höhenmesser), die Höhe 0 muss auf diesen Luftdruckwert zeigen, damit das Gerät die Stationshöhe richtig anzeigt.

NN: Luftdruck reduziert auf "Normal Null", auf Meereshöhe, dieser von der Temperatur abhängige Wert wird bisweilen unkorrekt einfach als "Luftdruck" bezeichnet. Eigentlich nur eine fiktive Größe, die es erlaubt, Stationen auf unterschiedlichen Höhen miteinander zu vergleichen.

Station: Realer Luftdruck an der Station.